sensor_id;sensor_type;location;lat;lon;timestamp;P1;durP1;ratioP1;P2;durP2;ratioP2
65757;SDS011;52495;52.208;5.158;2023-04-03T00:00:32;3.92;;;1.63;;
65757;SDS011;52495;52.208;5.158;2023-04-03T00:03:00;2.80;;;1.85;;
65757;SDS011;52495;52.208;5.158;2023-04-03T00:05:26;3.65;;;1.83;;
65757;SDS011;52495;52.208;5.158;2023-04-03T00:07:53;6.25;;;1.75;;
65757;SDS011;52495;52.208;5.158;2023-04-03T00:10:21;4.35;;;1.63;;
65757;SDS011;52495;52.208;5.158;2023-04-03T00:12:48;2.75;;;1.67;;
65757;SDS011;52495;52.208;5.158;2023-04-03T00:15:15;5.65;;;1.55;;
65757;SDS011;52495;52.208;5.158;2023-04-03T00:17:42;4.47;;;1.85;;
65757;SDS011;52495;52.208;5.158;2023-04-03T00:20:09;4.03;;;1.88;;
65757;SDS011;52495;52.208;5.158;2023-04-03T00:22:36;3.05;;;1.60;;
65757;SDS011;52495;52.208;5.158;2023-04-03T00:25:03;3.22;;;1.85;;
65757;SDS011;52495;52.208;5.158;2023-04-03T00:27:32;4.00;;;1.70;;
65757;SDS011;52495;52.208;5.158;2023-04-03T00:29:59;4.30;;;1.70;;
65757;SDS011;52495;52.208;5.158;2023-04-03T00:32:25;3.58;;;1.52;;
65757;SDS011;52495;52.208;5.158;2023-04-03T00:34:52;3.35;;;1.42;;
65757;SDS011;52495;52.208;5.158;2023-04-03T00:37:19;3.42;;;1.80;;
65757;SDS011;52495;52.208;5.158;2023-04-03T00:39:46;5.40;;;1.90;;
65757;SDS011;52495;52.208;5.158;2023-04-03T00:42:12;4.38;;;1.80;;
65757;SDS011;52495;52.208;5.158;2023-04-03T00:47:45;3.50;;;1.40;;
65757;SDS011;52495;52.208;5.158;2023-04-03T00:50:12;4.07;;;1.73;;
65757;SDS011;52495;52.208;5.158;2023-04-03T00:52:38;3.20;;;1.58;;
65757;SDS011;52495;52.208;5.158;2023-04-03T00:55:07;3.63;;;1.40;;
65757;SDS011;52495;52.208;5.158;2023-04-03T00:57:35;5.20;;;2.13;;
65757;SDS011;52495;52.208;5.158;2023-04-03T01:00:04;3.55;;;1.50;;
65757;SDS011;52495;52.208;5.158;2023-04-03T01:02:35;4.43;;;1.50;;
65757;SDS011;52495;52.208;5.158;2023-04-03T01:05:05;4.85;;;2.05;;
65757;SDS011;52495;52.208;5.158;2023-04-03T01:07:32;3.25;;;1.95;;
65757;SDS011;52495;52.208;5.158;2023-04-03T01:10:03;7.38;;;1.83;;
65757;SDS011;52495;52.208;5.158;2023-04-03T01:12:34;3.47;;;2.00;;
65757;SDS011;52495;52.208;5.158;2023-04-03T01:15:04;2.53;;;1.70;;
65757;SDS011;52495;52.208;5.158;2023-04-03T01:17:34;3.78;;;1.60;;
65757;SDS011;52495;52.208;5.158;2023-04-03T01:23:37;3.15;;;1.92;;
65757;SDS011;52495;52.208;5.158;2023-04-03T01:26:12;7.43;;;2.17;;
65757;SDS011;52495;52.208;5.158;2023-04-03T01:28:39;6.05;;;2.17;;
65757;SDS011;52495;52.208;5.158;2023-04-03T01:31:09;5.05;;;2.15;;
65757;SDS011;52495;52.208;5.158;2023-04-03T01:33:43;8.85;;;2.10;;
65757;SDS011;52495;52.208;5.158;2023-04-03T01:36:15;2.95;;;1.77;;
65757;SDS011;52495;52.208;5.158;2023-04-03T01:38:43;5.35;;;1.90;;
65757;SDS011;52495;52.208;5.158;2023-04-03T01:41:10;4.40;;;1.75;;
65757;SDS011;52495;52.208;5.158;2023-04-03T01:43:37;5.50;;;2.15;;
65757;SDS011;52495;52.208;5.158;2023-04-03T01:46:04;6.38;;;1.90;;
65757;SDS011;52495;52.208;5.158;2023-04-03T01:48:30;4.68;;;1.60;;
65757;SDS011;52495;52.208;5.158;2023-04-03T01:50:59;3.08;;;1.92;;
65757;SDS011;52495;52.208;5.158;2023-04-03T01:53:25;3.53;;;1.60;;
65757;SDS011;52495;52.208;5.158;2023-04-03T01:55:52;3.13;;;1.52;;
65757;SDS011;52495;52.208;5.158;2023-04-03T01:58:19;3.47;;;2.00;;
65757;SDS011;52495;52.208;5.158;2023-04-03T02:00:48;6.03;;;2.10;;
65757;SDS011;52495;52.208;5.158;2023-04-03T02:03:14;6.72;;;2.25;;
65757;SDS011;52495;52.208;5.158;2023-04-03T02:05:41;4.15;;;1.77;;
65757;SDS011;52495;52.208;5.158;2023-04-03T02:08:10;5.50;;;1.98;;
65757;SDS011;52495;52.208;5.158;2023-04-03T02:10:38;5.35;;;1.98;;
65757;SDS011;52495;52.208;5.158;2023-04-03T02:13:05;7.38;;;2.00;;
65757;SDS011;52495;52.208;5.158;2023-04-03T02:15:32;4.80;;;1.73;;
65757;SDS011;52495;52.208;5.158;2023-04-03T02:17:59;7.57;;;1.88;;
65757;SDS011;52495;52.208;5.158;2023-04-03T02:20:25;4.47;;;1.73;;
65757;SDS011;52495;52.208;5.158;2023-04-03T02:22:52;5.10;;;2.17;;
65757;SDS011;52495;52.208;5.158;2023-04-03T02:25:21;3.50;;;1.80;;
65757;SDS011;52495;52.208;5.158;2023-04-03T02:27:47;3.65;;;1.45;;
65757;SDS011;52495;52.208;5.158;2023-04-03T02:30:14;4.78;;;1.83;;
65757;SDS011;52495;52.208;5.158;2023-04-03T02:32:42;5.57;;;2.13;;
65757;SDS011;52495;52.208;5.158;2023-04-03T02:35:09;3.30;;;1.67;;
65757;SDS011;52495;52.208;5.158;2023-04-03T02:37:38;5.68;;;2.10;;
65757;SDS011;52495;52.208;5.158;2023-04-03T02:40:06;5.78;;;2.08;;
65757;SDS011;52495;52.208;5.158;2023-04-03T02:42:37;5.20;;;2.20;;
65757;SDS011;52495;52.208;5.158;2023-04-03T02:45:05;5.00;;;1.73;;
65757;SDS011;52495;52.208;5.158;2023-04-03T02:47:32;6.95;;;1.95;;
65757;SDS011;52495;52.208;5.158;2023-04-03T02:49:59;4.53;;;1.88;;
65757;SDS011;52495;52.208;5.158;2023-04-03T02:52:26;4.38;;;1.83;;
65757;SDS011;52495;52.208;5.158;2023-04-03T02:54:56;7.57;;;2.35;;
65757;SDS011;52495;52.208;5.158;2023-04-03T02:57:22;6.28;;;2.30;;
65757;SDS011;52495;52.208;5.158;2023-04-03T02:59:51;5.25;;;2.35;;
65757;SDS011;52495;52.208;5.158;2023-04-03T03:02:17;4.20;;;1.77;;
65757;SDS011;52495;52.208;5.158;2023-04-03T03:04:44;4.70;;;2.00;;
65757;SDS011;52495;52.208;5.158;2023-04-03T03:07:11;4.10;;;1.90;;
65757;SDS011;52495;52.208;5.158;2023-04-03T03:09:38;5.75;;;2.17;;
65757;SDS011;52495;52.208;5.158;2023-04-03T03:12:05;7.03;;;2.08;;
65757;SDS011;52495;52.208;5.158;2023-04-03T03:14:31;2.92;;;1.77;;
65757;SDS011;52495;52.208;5.158;2023-04-03T03:17:00;5.00;;;1.95;;
65757;SDS011;52495;52.208;5.158;2023-04-03T03:19:26;6.07;;;2.22;;
65757;SDS011;52495;52.208;5.158;2023-04-03T03:21:53;4.07;;;2.10;;
65757;SDS011;52495;52.208;5.158;2023-04-03T03:24:21;3.95;;;2.03;;
65757;SDS011;52495;52.208;5.158;2023-04-03T03:26:48;5.57;;;2.20;;
65757;SDS011;52495;52.208;5.158;2023-04-03T03:29:15;9.00;;;2.30;;
65757;SDS011;52495;52.208;5.158;2023-04-03T03:31:42;4.97;;;1.98;;
65757;SDS011;52495;52.208;5.158;2023-04-03T03:34:11;5.40;;;2.20;;
65757;SDS011;52495;52.208;5.158;2023-04-03T03:36:38;5.35;;;2.17;;
65757;SDS011;52495;52.208;5.158;2023-04-03T03:39:06;6.55;;;2.28;;
65757;SDS011;52495;52.208;5.158;2023-04-03T03:41:32;5.47;;;2.17;;
65757;SDS011;52495;52.208;5.158;2023-04-03T03:43:59;6.95;;;2.55;;
65757;SDS011;52495;52.208;5.158;2023-04-03T03:46:28;2.83;;;1.80;;
65757;SDS011;52495;52.208;5.158;2023-04-03T03:48:55;2.90;;;1.80;;
65757;SDS011;52495;52.208;5.158;2023-04-03T03:51:24;7.10;;;2.90;;
65757;SDS011;52495;52.208;5.158;2023-04-03T03:53:51;4.88;;;2.30;;
65757;SDS011;52495;52.208;5.158;2023-04-03T03:56:19;5.32;;;1.80;;
65757;SDS011;52495;52.208;5.158;2023-04-03T03:58:45;7.82;;;2.10;;
65757;SDS011;52495;52.208;5.158;2023-04-03T04:01:13;3.42;;;1.90;;
65757;SDS011;52495;52.208;5.158;2023-04-03T04:03:45;6.60;;;2.35;;
65757;SDS011;52495;52.208;5.158;2023-04-03T04:06:16;3.53;;;2.03;;
65757;SDS011;52495;52.208;5.158;2023-04-03T04:08:44;6.30;;;2.30;;
65757;SDS011;52495;52.208;5.158;2023-04-03T04:11:13;6.10;;;2.00;;
65757;SDS011;52495;52.208;5.158;2023-04-03T04:13:41;8.10;;;2.53;;
65757;SDS011;52495;52.208;5.158;2023-04-03T04:16:10;6.45;;;2.13;;
65757;SDS011;52495;52.208;5.158;2023-04-03T04:18:37;5.38;;;1.92;;
65757;SDS011;52495;52.208;5.158;2023-04-03T04:21:04;9.40;;;3.10;;
65757;SDS011;52495;52.208;5.158;2023-04-03T04:23:31;6.50;;;2.50;;
65757;SDS011;52495;52.208;5.158;2023-04-03T04:26:00;6.43;;;2.88;;
65757;SDS011;52495;52.208;5.158;2023-04-03T04:28:32;5.85;;;3.05;;
65757;SDS011;52495;52.208;5.158;2023-04-03T04:31:00;6.68;;;2.88;;
65757;SDS011;52495;52.208;5.158;2023-04-03T04:33:28;6.70;;;2.55;;
65757;SDS011;52495;52.208;5.158;2023-04-03T04:35:57;7.00;;;2.25;;
65757;SDS011;52495;52.208;5.158;2023-04-03T04:38:24;6.43;;;2.60;;
65757;SDS011;52495;52.208;5.158;2023-04-03T04:40:52;3.42;;;2.08;;
65757;SDS011;52495;52.208;5.158;2023-04-03T04:43:21;9.23;;;2.22;;
65757;SDS011;52495;52.208;5.158;2023-04-03T04:45:59;7.18;;;2.63;;
65757;SDS011;52495;52.208;5.158;2023-04-03T04:48:27;5.28;;;2.25;;
65757;SDS011;52495;52.208;5.158;2023-04-03T04:50:54;6.38;;;2.42;;
65757;SDS011;52495;52.208;5.158;2023-04-03T04:53:21;9.68;;;2.97;;
65757;SDS011;52495;52.208;5.158;2023-04-03T04:55:48;6.53;;;2.58;;
65757;SDS011;52495;52.208;5.158;2023-04-03T04:58:15;6.88;;;2.20;;
65757;SDS011;52495;52.208;5.158;2023-04-03T05:00:43;7.70;;;2.40;;
65757;SDS011;52495;52.208;5.158;2023-04-03T05:03:10;5.82;;;2.25;;
65757;SDS011;52495;52.208;5.158;2023-04-03T05:05:37;4.63;;;2.35;;
65757;SDS011;52495;52.208;5.158;2023-04-03T05:08:04;13.93;;;2.92;;
65757;SDS011;52495;52.208;5.158;2023-04-03T05:10:31;5.85;;;2.50;;
65757;SDS011;52495;52.208;5.158;2023-04-03T05:12:58;5.30;;;2.35;;
65757;SDS011;52495;52.208;5.158;2023-04-03T05:15:26;5.53;;;2.13;;
65757;SDS011;52495;52.208;5.158;2023-04-03T05:17:54;9.43;;;3.00;;
65757;SDS011;52495;52.208;5.158;2023-04-03T05:20:21;6.78;;;2.40;;
65757;SDS011;52495;52.208;5.158;2023-04-03T05:22:49;6.07;;;2.50;;
65757;SDS011;52495;52.208;5.158;2023-04-03T05:25:17;7.65;;;2.70;;
65757;SDS011;52495;52.208;5.158;2023-04-03T05:27:43;7.90;;;2.80;;
65757;SDS011;52495;52.208;5.158;2023-04-03T05:30:11;5.85;;;2.72;;
65757;SDS011;52495;52.208;5.158;2023-04-03T05:32:40;7.38;;;2.78;;
65757;SDS011;52495;52.208;5.158;2023-04-03T05:35:17;5.57;;;2.70;;
65757;SDS011;52495;52.208;5.158;2023-04-03T05:37:47;6.68;;;2.90;;
65757;SDS011;52495;52.208;5.158;2023-04-03T05:40:14;7.22;;;2.90;;
65757;SDS011;52495;52.208;5.158;2023-04-03T05:42:44;6.25;;;3.35;;
65757;SDS011;52495;52.208;5.158;2023-04-03T05:45:12;8.75;;;3.20;;
65757;SDS011;52495;52.208;5.158;2023-04-03T05:47:39;13.63;;;3.75;;
65757;SDS011;52495;52.208;5.158;2023-04-03T05:50:07;7.45;;;3.45;;
65757;SDS011;52495;52.208;5.158;2023-04-03T05:52:36;7.88;;;3.28;;
65757;SDS011;52495;52.208;5.158;2023-04-03T05:55:06;5.78;;;2.72;;
65757;SDS011;52495;52.208;5.158;2023-04-03T05:57:35;7.15;;;3.22;;
65757;SDS011;52495;52.208;5.158;2023-04-03T06:00:03;9.75;;;2.90;;
65757;SDS011;52495;52.208;5.158;2023-04-03T06:02:39;6.82;;;3.00;;
65757;SDS011;52495;52.208;5.158;2023-04-03T06:05:10;5.70;;;2.50;;
65757;SDS011;52495;52.208;5.158;2023-04-03T06:07:39;5.53;;;2.60;;
65757;SDS011;52495;52.208;5.158;2023-04-03T06:10:07;6.60;;;2.85;;
65757;SDS011;52495;52.208;5.158;2023-04-03T06:12:34;12.02;;;3.75;;
65757;SDS011;52495;52.208;5.158;2023-04-03T06:15:01;14.82;;;3.50;;
65757;SDS011;52495;52.208;5.158;2023-04-03T06:17:29;8.20;;;3.33;;
65757;SDS011;52495;52.208;5.158;2023-04-03T06:19:56;9.15;;;2.60;;
65757;SDS011;52495;52.208;5.158;2023-04-03T06:22:24;5.90;;;2.63;;
65757;SDS011;52495;52.208;5.158;2023-04-03T06:24:54;5.82;;;2.30;;
65757;SDS011;52495;52.208;5.158;2023-04-03T06:27:20;6.70;;;2.88;;
65757;SDS011;52495;52.208;5.158;2023-04-03T06:29:47;8.45;;;2.92;;
65757;SDS011;52495;52.208;5.158;2023-04-03T06:32:14;9.88;;;3.03;;
65757;SDS011;52495;52.208;5.158;2023-04-03T06:34:41;6.60;;;2.78;;
65757;SDS011;52495;52.208;5.158;2023-04-03T06:37:10;6.10;;;2.53;;
65757;SDS011;52495;52.208;5.158;2023-04-03T06:39:37;6.32;;;2.38;;
65757;SDS011;52495;52.208;5.158;2023-04-03T06:42:05;7.07;;;2.42;;
65757;SDS011;52495;52.208;5.158;2023-04-03T06:44:37;7.97;;;2.33;;
65757;SDS011;52495;52.208;5.158;2023-04-03T06:47:04;7.03;;;2.50;;
65757;SDS011;52495;52.208;5.158;2023-04-03T06:49:31;7.22;;;2.42;;
65757;SDS011;52495;52.208;5.158;2023-04-03T06:51:58;8.20;;;2.65;;
65757;SDS011;52495;52.208;5.158;2023-04-03T06:54:25;5.88;;;2.33;;
65757;SDS011;52495;52.208;5.158;2023-04-03T06:56:52;4.97;;;2.35;;
65757;SDS011;52495;52.208;5.158;2023-04-03T06:59:20;6.15;;;2.60;;
65757;SDS011;52495;52.208;5.158;2023-04-03T07:01:47;7.30;;;2.30;;
65757;SDS011;52495;52.208;5.158;2023-04-03T07:04:14;9.60;;;3.50;;
65757;SDS011;52495;52.208;5.158;2023-04-03T07:06:40;9.52;;;2.95;;
65757;SDS011;52495;52.208;5.158;2023-04-03T07:09:08;8.90;;;2.75;;
65757;SDS011;52495;52.208;5.158;2023-04-03T07:11:35;8.63;;;2.78;;
65757;SDS011;52495;52.208;5.158;2023-04-03T07:14:02;7.45;;;2.63;;
65757;SDS011;52495;52.208;5.158;2023-04-03T07:16:30;4.30;;;2.35;;
65757;SDS011;52495;52.208;5.158;2023-04-03T07:18:57;7.25;;;2.83;;
65757;SDS011;52495;52.208;5.158;2023-04-03T07:21:24;7.03;;;2.70;;
65757;SDS011;52495;52.208;5.158;2023-04-03T07:23:51;7.43;;;2.60;;
65757;SDS011;52495;52.208;5.158;2023-04-03T07:26:18;7.63;;;2.70;;
65757;SDS011;52495;52.208;5.158;2023-04-03T07:28:46;7.15;;;2.60;;
65757;SDS011;52495;52.208;5.158;2023-04-03T07:31:14;6.68;;;2.95;;
65757;SDS011;52495;52.208;5.158;2023-04-03T07:33:44;7.47;;;2.15;;
65757;SDS011;52495;52.208;5.158;2023-04-03T07:36:14;5.55;;;2.92;;
65757;SDS011;52495;52.208;5.158;2023-04-03T07:38:46;9.48;;;2.90;;
65757;SDS011;52495;52.208;5.158;2023-04-03T07:41:13;7.90;;;3.08;;
65757;SDS011;52495;52.208;5.158;2023-04-03T07:43:42;6.90;;;2.28;;
65757;SDS011;52495;52.208;5.158;2023-04-03T07:46:10;13.52;;;2.90;;
65757;SDS011;52495;52.208;5.158;2023-04-03T07:48:37;7.22;;;2.40;;
65757;SDS011;52495;52.208;5.158;2023-04-03T07:51:05;7.57;;;3.00;;
65757;SDS011;52495;52.208;5.158;2023-04-03T07:53:32;7.05;;;2.72;;
65757;SDS011;52495;52.208;5.158;2023-04-03T07:55:59;7.28;;;2.40;;
65757;SDS011;52495;52.208;5.158;2023-04-03T07:58:28;11.52;;;3.15;;
65757;SDS011;52495;52.208;5.158;2023-04-03T08:00:55;8.25;;;2.65;;
65757;SDS011;52495;52.208;5.158;2023-04-03T08:03:22;3.30;;;2.00;;
65757;SDS011;52495;52.208;5.158;2023-04-03T08:05:49;8.65;;;2.53;;
65757;SDS011;52495;52.208;5.158;2023-04-03T08:08:19;6.35;;;2.58;;
65757;SDS011;52495;52.208;5.158;2023-04-03T08:10:48;5.22;;;1.83;;
65757;SDS011;52495;52.208;5.158;2023-04-03T08:13:16;7.43;;;2.20;;
65757;SDS011;52495;52.208;5.158;2023-04-03T08:15:44;6.50;;;2.40;;
65757;SDS011;52495;52.208;5.158;2023-04-03T08:18:10;5.13;;;2.10;;
65757;SDS011;52495;52.208;5.158;2023-04-03T08:20:37;4.95;;;2.05;;
65757;SDS011;52495;52.208;5.158;2023-04-03T08:23:05;6.13;;;2.05;;
65757;SDS011;52495;52.208;5.158;2023-04-03T08:25:33;4.95;;;2.30;;
65757;SDS011;52495;52.208;5.158;2023-04-03T08:28:03;7.20;;;2.30;;
65757;SDS011;52495;52.208;5.158;2023-04-03T08:30:30;6.30;;;2.30;;
65757;SDS011;52495;52.208;5.158;2023-04-03T08:32:57;7.10;;;2.25;;
65757;SDS011;52495;52.208;5.158;2023-04-03T08:35:24;4.65;;;2.00;;
65757;SDS011;52495;52.208;5.158;2023-04-03T08:37:50;4.65;;;1.90;;
65757;SDS011;52495;52.208;5.158;2023-04-03T08:40:17;6.90;;;2.10;;
65757;SDS011;52495;52.208;5.158;2023-04-03T08:42:48;6.18;;;1.70;;
65757;SDS011;52495;52.208;5.158;2023-04-03T08:45:26;6.80;;;1.92;;
65757;SDS011;52495;52.208;5.158;2023-04-03T08:47:58;4.10;;;1.38;;
65757;SDS011;52495;52.208;5.158;2023-04-03T08:50:33;5.75;;;1.48;;
65757;SDS011;52495;52.208;5.158;2023-04-03T08:53:04;4.20;;;1.40;;
65757;SDS011;52495;52.208;5.158;2023-04-03T08:55:39;5.47;;;1.80;;
65757;SDS011;52495;52.208;5.158;2023-04-03T08:58:11;4.50;;;1.88;;
65757;SDS011;52495;52.208;5.158;2023-04-03T09:00:43;3.33;;;1.30;;
65757;SDS011;52495;52.208;5.158;2023-04-03T09:03:12;5.85;;;2.08;;
65757;SDS011;52495;52.208;5.158;2023-04-03T09:05:41;4.18;;;1.30;;
65757;SDS011;52495;52.208;5.158;2023-04-03T09:08:16;1.85;;;1.10;;
65757;SDS011;52495;52.208;5.158;2023-04-03T09:10:48;3.22;;;1.35;;
65757;SDS011;52495;52.208;5.158;2023-04-03T09:13:20;4.63;;;1.30;;
65757;SDS011;52495;52.208;5.158;2023-04-03T09:15:53;4.47;;;1.17;;
65757;SDS011;52495;52.208;5.158;2023-04-03T09:18:23;2.88;;;1.00;;
65757;SDS011;52495;52.208;5.158;2023-04-03T09:20:56;1.83;;;1.00;;
65757;SDS011;52495;52.208;5.158;2023-04-03T09:23:30;2.65;;;1.20;;
65757;SDS011;52495;52.208;5.158;2023-04-03T09:26:01;3.60;;;1.08;;
65757;SDS011;52495;52.208;5.158;2023-04-03T09:28:35;2.00;;;0.98;;
65757;SDS011;52495;52.208;5.158;2023-04-03T09:31:11;3.50;;;0.80;;
65757;SDS011;52495;52.208;5.158;2023-04-03T09:33:45;3.22;;;1.00;;
65757;SDS011;52495;52.208;5.158;2023-04-03T09:36:12;3.75;;;1.30;;
65757;SDS011;52495;52.208;5.158;2023-04-03T09:38:39;3.53;;;1.20;;
65757;SDS011;52495;52.208;5.158;2023-04-03T09:41:12;2.85;;;1.00;;
65757;SDS011;52495;52.208;5.158;2023-04-03T09:43:51;5.82;;;1.13;;
65757;SDS011;52495;52.208;5.158;2023-04-03T09:46:25;2.90;;;1.00;;
65757;SDS011;52495;52.208;5.158;2023-04-03T09:48:56;3.25;;;0.90;;
65757;SDS011;52495;52.208;5.158;2023-04-03T09:51:25;4.47;;;1.17;;
65757;SDS011;52495;52.208;5.158;2023-04-03T09:53:53;2.17;;;1.10;;
65757;SDS011;52495;52.208;5.158;2023-04-03T09:56:23;1.30;;;0.65;;
65757;SDS011;52495;52.208;5.158;2023-04-03T09:59:06;2.10;;;1.27;;
65757;SDS011;52495;52.208;5.158;2023-04-03T10:01:36;1.63;;;1.38;;
65757;SDS011;52495;52.208;5.158;2023-04-03T10:04:05;5.13;;;1.17;;
65757;SDS011;52495;52.208;5.158;2023-04-03T10:06:35;2.80;;;1.10;;
65757;SDS011;52495;52.208;5.158;2023-04-03T10:09:06;1.17;;;0.75;;
65757;SDS011;52495;52.208;5.158;2023-04-03T10:11:50;0.82;;;0.60;;
65757;SDS011;52495;52.208;5.158;2023-04-03T10:14:26;2.53;;;1.20;;
65757;SDS011;52495;52.208;5.158;2023-04-03T10:16:55;1.90;;;0.98;;
65757;SDS011;52495;52.208;5.158;2023-04-03T10:19:34;2.17;;;0.90;;
65757;SDS011;52495;52.208;5.158;2023-04-03T10:22:11;1.55;;;0.70;;
65757;SDS011;52495;52.208;5.158;2023-04-03T10:24:48;0.90;;;0.70;;
65757;SDS011;52495;52.208;5.158;2023-04-03T10:27:22;1.63;;;0.55;;
65757;SDS011;52495;52.208;5.158;2023-04-03T10:30:01;2.03;;;0.70;;
65757;SDS011;52495;52.208;5.158;2023-04-03T10:32:45;3.65;;;1.35;;
65757;SDS011;52495;52.208;5.158;2023-04-03T10:35:25;2.78;;;1.02;;
65757;SDS011;52495;52.208;5.158;2023-04-03T10:38:04;2.88;;;0.90;;
65757;SDS011;52495;52.208;5.158;2023-04-03T10:40:42;2.03;;;0.70;;
65757;SDS011;52495;52.208;5.158;2023-04-03T10:43:18;2.97;;;0.93;;
65757;SDS011;52495;52.208;5.158;2023-04-03T10:45:57;2.33;;;0.98;;
65757;SDS011;52495;52.208;5.158;2023-04-03T10:51:24;2.30;;;0.95;;
65757;SDS011;52495;52.208;5.158;2023-04-03T10:53:56;2.83;;;0.90;;
65757;SDS011;52495;52.208;5.158;2023-04-03T10:56:32;2.42;;;0.90;;
65757;SDS011;52495;52.208;5.158;2023-04-03T10:59:07;2.25;;;0.70;;
65757;SDS011;52495;52.208;5.158;2023-04-03T11:01:44;1.98;;;0.80;;
65757;SDS011;52495;52.208;5.158;2023-04-03T11:04:15;2.30;;;0.77;;
65757;SDS011;52495;52.208;5.158;2023-04-03T11:06:45;1.08;;;0.88;;
65757;SDS011;52495;52.208;5.158;2023-04-03T11:09:18;1.67;;;0.80;;
65757;SDS011;52495;52.208;5.158;2023-04-03T11:11:49;2.05;;;0.70;;
65757;SDS011;52495;52.208;5.158;2023-04-03T11:14:22;1.98;;;0.90;;
65757;SDS011;52495;52.208;5.158;2023-04-03T11:16:55;1.08;;;0.90;;
65757;SDS011;52495;52.208;5.158;2023-04-03T11:19:34;1.77;;;0.90;;
65757;SDS011;52495;52.208;5.158;2023-04-03T11:22:05;2.15;;;1.00;;
65757;SDS011;52495;52.208;5.158;2023-04-03T11:24:38;1.67;;;0.80;;
65757;SDS011;52495;52.208;5.158;2023-04-03T11:27:08;1.08;;;0.73;;
65757;SDS011;52495;52.208;5.158;2023-04-03T11:29:41;2.97;;;1.00;;
65757;SDS011;52495;52.208;5.158;2023-04-03T11:32:20;2.80;;;1.00;;
65757;SDS011;52495;52.208;5.158;2023-04-03T11:35:04;2.15;;;0.85;;
65757;SDS011;52495;52.208;5.158;2023-04-03T11:37:34;1.60;;;0.80;;
65757;SDS011;52495;52.208;5.158;2023-04-03T11:40:05;1.77;;;1.00;;
65757;SDS011;52495;52.208;5.158;2023-04-03T11:42:36;1.77;;;0.90;;
65757;SDS011;52495;52.208;5.158;2023-04-03T11:45:22;3.78;;;0.77;;
65757;SDS011;52495;52.208;5.158;2023-04-03T11:48:04;3.50;;;0.93;;
65757;SDS011;52495;52.208;5.158;2023-04-03T11:50:43;4.28;;;1.10;;
65757;SDS011;52495;52.208;5.158;2023-04-03T11:53:33;1.75;;;0.73;;
65757;SDS011;52495;52.208;5.158;2023-04-03T11:56:02;2.15;;;0.95;;
65757;SDS011;52495;52.208;5.158;2023-04-03T11:58:32;1.73;;;0.90;;
65757;SDS011;52495;52.208;5.158;2023-04-03T12:01:01;2.70;;;0.80;;
65757;SDS011;52495;52.208;5.158;2023-04-03T12:09:25;4.25;;;1.02;;
65757;SDS011;52495;52.208;5.158;2023-04-03T12:12:23;3.00;;;1.10;;
65757;SDS011;52495;52.208;5.158;2023-04-03T12:14:54;1.83;;;0.98;;
65757;SDS011;52495;52.208;5.158;2023-04-03T12:17:22;1.77;;;1.10;;
65757;SDS011;52495;52.208;5.158;2023-04-03T12:19:54;2.60;;;1.10;;
65757;SDS011;52495;52.208;5.158;2023-04-03T12:22:21;3.47;;;1.00;;
65757;SDS011;52495;52.208;5.158;2023-04-03T12:24:49;1.88;;;1.25;;
65757;SDS011;52495;52.208;5.158;2023-04-03T12:27:21;3.28;;;0.80;;
65757;SDS011;52495;52.208;5.158;2023-04-03T12:29:56;2.00;;;0.82;;
65757;SDS011;52495;52.208;5.158;2023-04-03T12:35:19;2.95;;;1.00;;
65757;SDS011;52495;52.208;5.158;2023-04-03T12:41:11;2.33;;;0.90;;
65757;SDS011;52495;52.208;5.158;2023-04-03T12:47:00;3.42;;;0.93;;
65757;SDS011;52495;52.208;5.158;2023-04-03T12:49:33;2.13;;;1.20;;
65757;SDS011;52495;52.208;5.158;2023-04-03T12:52:06;2.78;;;1.20;;
65757;SDS011;52495;52.208;5.158;2023-04-03T12:54:46;3.42;;;1.27;;
65757;SDS011;52495;52.208;5.158;2023-04-03T12:57:16;4.30;;;1.10;;
65757;SDS011;52495;52.208;5.158;2023-04-03T12:59:44;2.58;;;0.90;;
65757;SDS011;52495;52.208;5.158;2023-04-03T13:02:22;3.75;;;1.02;;
65757;SDS011;52495;52.208;5.158;2023-04-03T13:04:51;1.73;;;0.90;;
65757;SDS011;52495;52.208;5.158;2023-04-03T13:07:22;1.58;;;0.88;;
65757;SDS011;52495;52.208;5.158;2023-04-03T13:09:56;1.35;;;0.80;;
65757;SDS011;52495;52.208;5.158;2023-04-03T13:12:24;2.10;;;1.08;;
65757;SDS011;52495;52.208;5.158;2023-04-03T13:14:52;2.50;;;1.15;;
65757;SDS011;52495;52.208;5.158;2023-04-03T13:17:22;2.60;;;1.20;;
65757;SDS011;52495;52.208;5.158;2023-04-03T13:19:49;4.38;;;1.27;;
65757;SDS011;52495;52.208;5.158;2023-04-03T13:22:21;1.80;;;1.13;;
65757;SDS011;52495;52.208;5.158;2023-04-03T13:24:55;3.35;;;1.20;;
65757;SDS011;52495;52.208;5.158;2023-04-03T13:27:25;2.72;;;1.20;;
65757;SDS011;52495;52.208;5.158;2023-04-03T13:29:54;2.08;;;1.00;;
65757;SDS011;52495;52.208;5.158;2023-04-03T13:32:24;4.28;;;1.25;;
65757;SDS011;52495;52.208;5.158;2023-04-03T13:34:54;2.15;;;0.88;;
65757;SDS011;52495;52.208;5.158;2023-04-03T13:37:22;3.35;;;1.45;;
65757;SDS011;52495;52.208;5.158;2023-04-03T13:40:01;2.85;;;1.20;;
65757;SDS011;52495;52.208;5.158;2023-04-03T13:42:31;2.60;;;1.10;;
65757;SDS011;52495;52.208;5.158;2023-04-03T13:45:17;2.63;;;1.05;;
65757;SDS011;52495;52.208;5.158;2023-04-03T13:47:49;2.25;;;1.25;;
65757;SDS011;52495;52.208;5.158;2023-04-03T13:50:20;3.20;;;1.20;;
65757;SDS011;52495;52.208;5.158;2023-04-03T13:52:52;3.60;;;1.45;;
65757;SDS011;52495;52.208;5.158;2023-04-03T13:55:22;3.50;;;1.40;;
65757;SDS011;52495;52.208;5.158;2023-04-03T13:57:51;4.35;;;1.52;;
65757;SDS011;52495;52.208;5.158;2023-04-03T14:05:38;2.30;;;1.20;;
65757;SDS011;52495;52.208;5.158;2023-04-03T14:08:05;2.92;;;1.20;;
65757;SDS011;52495;52.208;5.158;2023-04-03T14:10:34;4.10;;;1.30;;
65757;SDS011;52495;52.208;5.158;2023-04-03T14:13:01;4.30;;;1.02;;
65757;SDS011;52495;52.208;5.158;2023-04-03T14:15:28;1.65;;;1.02;;
65757;SDS011;52495;52.208;5.158;2023-04-03T14:17:57;2.97;;;1.20;;
65757;SDS011;52495;52.208;5.158;2023-04-03T14:20:25;2.10;;;1.20;;
65757;SDS011;52495;52.208;5.158;2023-04-03T14:22:53;2.88;;;1.20;;
65757;SDS011;52495;52.208;5.158;2023-04-03T14:25:21;3.38;;;1.20;;
65757;SDS011;52495;52.208;5.158;2023-04-03T14:27:51;5.57;;;1.30;;
65757;SDS011;52495;52.208;5.158;2023-04-03T14:30:21;2.40;;;1.10;;
65757;SDS011;52495;52.208;5.158;2023-04-03T14:32:50;4.68;;;1.48;;
65757;SDS011;52495;52.208;5.158;2023-04-03T14:35:17;3.92;;;1.50;;
65757;SDS011;52495;52.208;5.158;2023-04-03T14:37:45;3.63;;;1.30;;
65757;SDS011;52495;52.208;5.158;2023-04-03T14:40:15;2.92;;;1.40;;
65757;SDS011;52495;52.208;5.158;2023-04-03T14:42:43;2.65;;;1.30;;
65757;SDS011;52495;52.208;5.158;2023-04-03T14:45:14;4.25;;;1.60;;
65757;SDS011;52495;52.208;5.158;2023-04-03T14:47:42;2.53;;;1.20;;
65757;SDS011;52495;52.208;5.158;2023-04-03T14:50:14;3.92;;;1.65;;
65757;SDS011;52495;52.208;5.158;2023-04-03T14:52:42;2.63;;;1.20;;
65757;SDS011;52495;52.208;5.158;2023-04-03T14:55:11;3.22;;;1.50;;
65757;SDS011;52495;52.208;5.158;2023-04-03T14:57:38;2.55;;;1.35;;
65757;SDS011;52495;52.208;5.158;2023-04-03T15:00:07;2.72;;;1.23;;
65757;SDS011;52495;52.208;5.158;2023-04-03T15:02:40;5.38;;;1.70;;
65757;SDS011;52495;52.208;5.158;2023-04-03T15:05:08;3.63;;;1.45;;
65757;SDS011;52495;52.208;5.158;2023-04-03T15:07:37;2.72;;;1.25;;
65757;SDS011;52495;52.208;5.158;2023-04-03T15:10:14;2.78;;;1.50;;
65757;SDS011;52495;52.208;5.158;2023-04-03T15:12:43;3.85;;;1.60;;
65757;SDS011;52495;52.208;5.158;2023-04-03T15:15:10;4.28;;;1.45;;
65757;SDS011;52495;52.208;5.158;2023-04-03T15:17:40;3.67;;;1.35;;
65757;SDS011;52495;52.208;5.158;2023-04-03T15:20:11;3.42;;;1.50;;
65757;SDS011;52495;52.208;5.158;2023-04-03T15:22:39;4.57;;;1.67;;
65757;SDS011;52495;52.208;5.158;2023-04-03T15:25:06;3.05;;;1.48;;
65757;SDS011;52495;52.208;5.158;2023-04-03T15:27:34;4.78;;;1.60;;
65757;SDS011;52495;52.208;5.158;2023-04-03T15:30:02;2.70;;;1.42;;
65757;SDS011;52495;52.208;5.158;2023-04-03T15:32:29;3.78;;;1.65;;